메인 페이지
METAR-TAF:

METAR-TAF

공항 :

벨렝, 파라, 브라질

위도: 01-23S, 경도: 048-29W, 고도: 16m

현재 날씨관측

예보는 43분 전, 12:00시(UTC)에 발표되었습니다.
9kt
온도 28°C
습도 70%
기압 1015 hPa
시정 10km 이상
1500m 미만 상공 구름 및 적란운 없음

METAR: SBBE 221200Z 08009KT CAVOK 28/22 Q1015

시각: 09:43 (12:43 UTC)

예보

예보는 2 시간 43분 전, 10:00시(UTC)에 발표되었습니다.
예보 대상 시간: 22일 12시부터 23일 12시까지 (UTC)
8kt
시정 10km 이상
고도 2500ft 상공 구름 보통
전환 중
22일 16시부터 22일 18시까지 (UTC)
5kt
고도 3000ft 상공 구름 보통
고도 3500ft 상공 구름 조금, 타워링 적운.
전환 중
22일 22시부터 22일 24시까지 (UTC)
동북동5kt
고도 3000ft 상공 구름 조금

TAF: SBBE 221000Z 2212/2312 08008KT 9999 SCT025 TX32/2216Z TN24/2306Z BECMG 2216/2218 36005KT SCT030 FEW035TCU BECMG 2222/2224 06005KT FEW030 RM K PEN

4,000개 이상의 공항 관측 자료 및 예보 (METAR 및 TAF 보고).

지도상에서 검색 가능한 기상관측소가 노란 점과 빨간 점으로 표시되어 있습니다.

기상관측소 명을 보려면 표시 위로 마우스를 이동하세요.

날씨 관측과 예보를 보려면 클릭하세요.

지도 변경 : 확대하려면 엑스 표시가 있는 녹색 버튼, 축소하려면 빼기 표시가 있는 녹색 버튼, 다음 페이지의 지도를 보려면 녹색 화살표를 클릭하세요.


METAR-TAF: